Watertown, Minnesota
Current Conditions -  °F | °C
As of 1:35 AM on Saturday 29 Nov 2014 (Local Time) from KCFE Reporting Station
Clear Clear  
Wind Chill: 21°   Ceiling: Unl
Heat Index: 21°   Visibility: 10mi
Dew Point: 18°   Wind: 3mph
Humidity: 89%   Direction: 70°ENE
Pressure: 29.61"   Gusts: NA
Location:  44.96°N, 93.85°W
Report Text: KCFE 290735Z AUTO 07003KT 10SM CLR M06/M08 A2961 RMK AO2 T10611077
Loading
Personal Weather Stations






























Interactive Weather Map New forecast layout! Learn more

10-Day Weather Forecast

Advertisements
Track Severe Weather on mobile